Time;durP1;ratioP1;P1;durP2;ratioP2;P2;SDS_P1;SDS_P2;PMS_P1;PMS_P2;Temp;Humidity;BMP_temperature;BMP_pressure;BME280_temperature;BME280_humidity;BME280_pressure;Samples;Min_cycle;Max_cycle;Signal;HPM_P1;HPM_P2
2022/03/05 00:00:14;;;;;;;69.70;44.05;;;;;;;0.27;86.14;96795.34;1700506;84;21376;-84
2022/03/05 00:02:41;;;;;;;75.50;43.45;;;;;;;0.27;86.24;96795.34;1700252;84;21084;-83
2022/03/05 00:05:09;;;;;;;68.97;41.75;;;;;;;0.25;86.12;96794.64;1700627;84;21444;-84
2022/03/05 00:07:35;;;;;;;77.67;45.12;;;;;;;0.26;86.09;96796.27;1700365;84;21132;-84
2022/03/05 00:10:02;;;;;;;82.72;47.45;;;;;;;0.26;86.07;96795.81;1700323;84;21512;-83
2022/03/05 00:12:27;;;;;;;62.45;37.05;;;;;;;0.31;86.17;96798.03;1700324;84;21086;-83
2022/03/05 00:14:53;;;;;;;52.38;31.10;;;;;;;0.26;86.18;96795.00;1700325;84;21077;-83
2022/03/05 00:17:19;;;;;;;74.87;43.95;;;;;;;0.19;86.20;96801.47;1700194;84;22248;-84
2022/03/05 00:19:45;;;;;;;61.02;39.05;;;;;;;0.09;86.20;96801.75;1700421;84;21074;-83
2022/03/05 00:22:11;;;;;;;67.30;41.15;;;;;;;0.06;86.41;96798.14;1700545;84;21023;-83
2022/03/05 00:24:36;;;;;;;70.05;42.17;;;;;;;0.01;86.49;96803.58;1700255;84;21173;-83
2022/03/05 00:27:04;;;;;;;70.85;41.58;;;;;;;-0.03;86.51;96804.69;1700392;84;21055;-83
2022/03/05 00:29:30;;;;;;;74.25;43.60;;;;;;;-0.09;86.72;96799.55;1700412;84;21439;-83
2022/03/05 00:31:56;;;;;;;72.55;43.70;;;;;;;-0.05;86.86;96799.69;1700376;84;20982;-83
2022/03/05 00:34:22;;;;;;;72.42;41.95;;;;;;;0.02;86.85;96803.92;1700439;84;21061;-84
2022/03/05 00:36:48;;;;;;;75.03;43.08;;;;;;;0.10;86.83;96804.66;1700467;84;20951;-84
2022/03/05 00:39:14;;;;;;;77.92;45.20;;;;;;;0.12;86.60;96801.06;1700359;84;21515;-83
2022/03/05 00:41:39;;;;;;;69.77;41.35;;;;;;;0.16;86.66;96796.55;1700382;84;21089;-83
2022/03/05 00:44:05;;;;;;;76.67;42.98;;;;;;;0.20;86.60;96800.09;1700450;84;21090;-83
2022/03/05 00:46:31;;;;;;;77.62;45.67;;;;;;;0.29;86.65;96796.87;1700167;84;21089;-83
2022/03/05 00:48:57;;;;;;;78.92;46.73;;;;;;;0.28;86.31;96800.81;1700356;84;21006;-83
2022/03/05 00:51:23;;;;;;;79.72;48.05;;;;;;;0.31;86.36;96796.76;1698655;83;21058;-83
2022/03/05 00:53:49;;;;;;;73.22;44.77;;;;;;;0.36;86.36;96802.38;1693401;85;21045;-83
2022/03/05 00:56:14;;;;;;;82.82;46.53;;;;;;;0.39;86.25;96798.33;1693384;85;21475;-83
2022/03/05 00:58:40;;;;;;;75.47;44.13;;;;;;;0.38;86.07;96798.44;1693608;85;20986;-83
2022/03/05 01:01:06;;;;;;;75.30;45.28;;;;;;;0.43;86.06;96799.73;1693647;85;21018;-83
2022/03/05 01:03:31;;;;;;;75.95;42.58;;;;;;;0.42;85.66;96797.28;1693644;84;21010;-84
2022/03/05 01:05:57;;;;;;;75.57;43.25;;;;;;;0.37;85.46;96787.86;1673491;85;21413;-84
2022/03/05 01:08:23;;;;;;;75.50;44.70;;;;;;;0.35;85.43;96794.82;1693764;85;21423;-83
2022/03/05 01:10:49;;;;;;;80.10;44.55;;;;;;;0.26;85.45;96792.44;1693626;85;21009;-83
2022/03/05 01:13:15;;;;;;;73.25;41.68;;;;;;;0.21;85.55;96787.66;1693438;85;21014;-83
2022/03/05 01:15:40;;;;;;;71.70;42.80;;;;;;;0.23;85.61;96787.09;1693566;85;20979;-83
2022/03/05 01:18:06;;;;;;;74.55;40.90;;;;;;;0.24;85.54;96787.91;1693489;85;21078;-83
2022/03/05 01:20:32;;;;;;;72.22;40.50;;;;;;;0.28;85.46;96793.95;1693492;85;20947;-83
2022/03/05 01:22:57;;;;;;;68.35;42.08;;;;;;;0.29;85.49;96791.75;1693587;85;21001;-83
2022/03/05 01:25:23;;;;;;;71.15;41.85;;;;;;;0.32;85.45;96792.00;1693583;85;20959;-83
2022/03/05 01:27:49;;;;;;;72.32;43.63;;;;;;;0.33;85.40;96789.01;1693571;85;21010;-83
2022/03/05 01:30:15;;;;;;;78.22;44.77;;;;;;;0.40;85.48;96793.56;1693416;85;21006;-84
2022/03/05 01:32:40;;;;;;;81.75;46.73;;;;;;;0.42;85.30;96784.50;1693821;84;21279;-84
2022/03/05 01:35:08;;;;;;;70.50;41.02;;;;;;;0.37;85.15;96784.02;1693647;85;20947;-83
2022/03/05 01:37:34;;;;;;;76.97;46.08;;;;;;;0.27;85.24;96782.57;1693369;85;21002;-83
2022/03/05 01:40:00;;;;;;;82.08;47.20;;;;;;;0.20;85.28;96783.48;1693610;85;20978;-83
2022/03/05 01:42:26;;;;;;;69.37;40.55;;;;;;;0.23;85.37;96774.77;1693559;85;21013;-84
2022/03/05 01:44:52;;;;;;;70.50;40.38;;;;;;;0.20;85.35;96784.75;1693550;85;21006;-84
2022/03/05 01:47:18;;;;;;;79.12;44.50;;;;;;;0.09;85.17;96782.13;1673574;85;21486;-83
2022/03/05 01:49:44;;;;;;;77.92;43.80;;;;;;;0.05;85.38;96782.45;1693557;85;21045;-83
2022/03/05 01:52:11;;;;;;;75.55;44.35;;;;;;;0.04;85.38;96780.83;1696450;83;21118;-83
2022/03/05 01:54:37;;;;;;;73.05;43.78;;;;;;;0.08;85.47;96781.77;1699955;82;21440;-83
2022/03/05 01:57:03;;;;;;;72.65;42.90;;;;;;;0.13;85.46;96776.33;1700391;84;20990;-83
2022/03/05 01:59:29;;;;;;;75.72;42.53;;;;;;;0.12;85.46;96774.23;1678421;84;20946;-83
2022/03/05 02:01:54;;;;;;;68.75;39.80;;;;;;;0.15;85.48;96771.92;1700350;84;21448;-83
2022/03/05 02:04:20;;;;;;;69.37;40.12;;;;;;;0.11;85.42;96768.77;1700384;84;21113;-83
2022/03/05 02:06:47;;;;;;;67.95;39.50;;;;;;;0.08;85.26;96778.41;1700390;84;21040;-83
2022/03/05 02:09:13;;;;;;;73.28;42.75;;;;;;;0.02;85.22;96777.10;1678181;84;21021;-83
2022/03/05 02:11:38;;;;;;;71.53;41.15;;;;;;;0.05;85.53;96783.73;1700273;84;20966;-83
2022/03/05 02:14:04;;;;;;;66.40;39.95;;;;;;;0.04;85.43;96775.25;1700357;84;20998;-84
2022/03/05 02:16:30;;;;;;;69.67;39.40;;;;;;;0.05;85.47;96776.06;1677961;84;21302;-83
2022/03/05 02:18:56;;;;;;;71.97;42.62;;;;;;;0.08;85.49;96779.22;1700236;84;21005;-83
2022/03/05 02:21:26;;;;;;;77.30;45.05;;;;;;;0.12;85.62;96779.81;1700175;84;21054;-84
2022/03/05 02:23:52;;;;;;;75.60;43.90;;;;;;;0.17;85.60;96781.14;1700233;84;20998;-83
2022/03/05 02:26:18;;;;;;;74.12;41.08;;;;;;;0.19;85.58;96781.84;1700447;84;21056;-83
2022/03/05 02:28:43;;;;;;;80.80;45.17;;;;;;;0.18;85.49;96777.66;1700220;84;21401;-83
2022/03/05 02:31:09;;;;;;;75.12;44.15;;;;;;;0.13;85.46;96782.25;1700487;84;21070;-83
2022/03/05 02:33:35;;;;;;;72.67;42.98;;;;;;;0.10;85.38;96783.75;1700283;84;21073;-84
2022/03/05 02:36:01;;;;;;;79.53;45.52;;;;;;;0.07;85.48;96783.16;1700478;84;21061;-83
2022/03/05 02:38:26;;;;;;;79.75;44.93;;;;;;;0.05;85.69;96785.01;1700465;84;21061;-83
2022/03/05 02:40:52;;;;;;;77.40;42.45;;;;;;;0.06;85.88;96787.45;1700372;84;20998;-83
2022/03/05 02:43:19;;;;;;;78.25;44.55;;;;;;;0.11;85.89;96784.57;1700485;84;21053;-83
2022/03/05 02:45:45;;;;;;;82.82;48.40;;;;;;;0.11;85.62;96784.11;1700587;84;21377;-83
2022/03/05 02:48:14;;;;;;;82.20;46.73;;;;;;;0.07;85.57;96790.83;1700130;84;21070;-83
2022/03/05 02:50:40;;;;;;;78.67;44.08;;;;;;;0.03;85.86;96788.95;1700343;84;21440;-83
2022/03/05 02:53:06;;;;;;;85.17;46.20;;;;;;;0.06;85.92;96788.73;1672830;84;21035;-83
2022/03/05 02:55:32;;;;;;;78.28;44.42;;;;;;;0.03;85.74;96786.86;1689835;83;20986;-84
2022/03/05 02:57:58;;;;;;;80.22;43.65;;;;;;;-0.01;85.98;96787.05;1678075;85;21346;-83
2022/03/05 03:00:23;;;;;;;46.02;25.57;;;;;;;-0.01;85.90;96787.51;1690708;85;20990;-83
2022/03/05 03:02:49;;;;;;;65.80;37.98;;;;;;;0.00;86.17;96790.45;1690681;85;21024;-83
2022/03/05 03:05:16;;;;;;;73.20;42.65;;;;;;;-0.10;85.86;96788.98;1690835;85;21010;-83
2022/03/05 03:07:43;;;;;;;66.40;38.10;;;;;;;-0.13;86.03;96793.03;1648247;85;20994;-83
2022/03/05 03:10:10;;;;;;;67.42;38.63;;;;;;;-0.09;85.97;96793.16;1690593;85;21102;-83
2022/03/05 03:12:36;;;;;;;68.80;42.40;;;;;;;-0.05;86.06;96789.47;1690609;85;21038;-83
2022/03/05 03:15:04;;;;;;;75.65;40.92;;;;;;;-0.01;86.03;96797.27;1690569;85;21423;-83
2022/03/05 03:17:42;;;;;;;66.22;38.70;;;;;;;0.04;86.04;96792.32;1670337;85;21008;-83
2022/03/05 03:20:10;;;;;;;68.37;39.55;;;;;;;0.08;86.08;96792.45;1689491;85;21014;-83
2022/03/05 03:22:35;;;;;;;68.78;39.05;;;;;;;0.19;86.12;96795.09;1690666;85;21362;-83
2022/03/05 03:25:01;;;;;;;72.25;41.10;;;;;;;0.23;85.82;96796.50;1690572;85;21368;-83
2022/03/05 03:27:27;;;;;;;67.60;41.15;;;;;;;0.23;85.78;96799.05;1690725;85;20963;-83
2022/03/05 03:29:52;;;;;;;66.90;41.50;;;;;;;0.27;85.97;96788.95;1690806;85;21002;-83
2022/03/05 03:32:19;;;;;;;75.65;42.90;;;;;;;0.27;85.86;96793.61;1690545;85;21010;-83
2022/03/05 03:34:44;;;;;;;66.65;38.55;;;;;;;0.25;85.71;96792.91;1690720;85;21432;-83
2022/03/05 03:37:10;;;;;;;79.07;45.28;;;;;;;0.24;85.96;96793.02;1690717;85;21026;-83
2022/03/05 03:39:36;;;;;;;73.33;42.53;;;;;;;0.12;85.60;96800.25;1690710;85;21002;-83
2022/03/05 03:42:02;;;;;;;74.47;43.68;;;;;;;0.07;85.89;96796.75;1690646;85;21393;-83
2022/03/05 03:44:28;;;;;;;75.70;44.50;;;;;;;-0.01;86.09;96795.17;1690776;85;21354;-83
2022/03/05 03:46:53;;;;;;;69.75;39.53;;;;;;;-0.04;86.36;96791.56;1690692;85;21041;-83
2022/03/05 03:49:19;;;;;;;77.95;43.98;;;;;;;-0.03;86.50;96797.84;1690731;85;20998;-84
2022/03/05 03:51:45;;;;;;;68.07;41.53;;;;;;;-0.04;86.41;96796.67;1690877;83;21003;-83
2022/03/05 03:54:11;;;;;;;85.67;46.70;;;;;;;-0.05;86.53;96798.88;1693523;83;20962;-83
2022/03/05 03:56:37;;;;;;;77.95;43.92;;;;;;;-0.14;86.56;96804.17;1693445;85;21010;-83
2022/03/05 03:59:03;;;;;;;74.75;42.90;;;;;;;-0.14;86.85;96800.34;1693570;85;20979;-83
2022/03/05 04:01:28;;;;;;;76.92;44.10;;;;;;;-0.15;86.86;96800.45;1673604;85;20972;-83
2022/03/05 04:03:54;;;;;;;71.33;39.27;;;;;;;-0.17;86.88;96799.70;1693497;85;21417;-83
2022/03/05 04:06:20;;;;;;;55.85;31.73;;;;;;;-0.21;87.11;96804.22;1693647;85;21002;-83
2022/03/05 04:08:46;;;;;;;65.90;37.93;;;;;;;-0.26;86.92;96798.61;1693408;85;21002;-83
2022/03/05 04:11:16;;;;;;;65.20;36.85;;;;;;;-0.32;87.29;96799.05;1693547;85;21054;-83
2022/03/05 04:13:43;;;;;;;71.75;41.08;;;;;;;-0.38;87.50;96796.89;1693563;85;21373;-83
2022/03/05 04:16:09;;;;;;;62.90;36.73;;;;;;;-0.39;87.33;96797.81;1693545;85;21070;-83
2022/03/05 04:18:35;;;;;;;74.32;41.28;;;;;;;-0.31;87.91;96795.56;1693319;85;21590;-83
2022/03/05 04:21:01;;;;;;;66.92;38.95;;;;;;;-0.33;87.44;96799.51;1693618;85;21025;-83
2022/03/05 04:23:28;;;;;;;65.35;37.58;;;;;;;-0.27;87.68;96798.72;1693553;85;21416;-83
2022/03/05 04:25:53;;;;;;;69.40;39.30;;;;;;;-0.27;87.54;96803.37;1693526;84;21061;-83
2022/03/05 04:28:19;;;;;;;52.25;32.28;;;;;;;-0.32;87.52;96801.14;1693823;85;21001;-83
2022/03/05 04:30:45;;;;;;;70.30;39.67;;;;;;;-0.31;87.54;96800.67;1693608;85;21369;-83
2022/03/05 04:33:11;;;;;;;69.70;40.43;;;;;;;-0.34;87.59;96800.40;1696842;84;20991;-83
2022/03/05 04:35:37;;;;;;;78.72;42.65;;;;;;;-0.33;87.87;96799.51;1693628;85;21030;-83
2022/03/05 04:38:03;;;;;;;75.47;41.77;;;;;;;-0.31;87.74;96801.95;1693464;85;21066;-83
2022/03/05 04:40:29;;;;;;;75.03;42.23;;;;;;;-0.29;87.68;96807.77;1693751;85;21021;-83
2022/03/05 04:42:54;;;;;;;77.00;44.20;;;;;;;-0.30;87.69;96802.30;1693502;85;21014;-83
2022/03/05 04:45:20;;;;;;;78.83;46.48;;;;;;;-0.29;87.72;96806.95;1673331;85;21061;-83
2022/03/05 04:47:46;;;;;;;73.62;42.73;;;;;;;-0.28;87.84;96804.29;1693490;85;21448;-83
2022/03/05 04:50:12;;;;;;;79.45;44.40;;;;;;;-0.24;87.85;96805.70;1693472;85;21006;-83
2022/03/05 04:52:38;;;;;;;80.77;44.77;;;;;;;-0.22;87.83;96806.87;1695515;84;21033;-83
2022/03/05 04:55:04;;;;;;;70.95;42.33;;;;;;;-0.16;87.84;96806.48;1698831;82;20977;-83
2022/03/05 04:57:30;;;;;;;57.30;36.28;;;;;;;-0.13;87.61;96808.81;1700380;84;21037;-82
2022/03/05 04:59:56;;;;;;;76.15;42.20;;;;;;;-0.12;87.63;96804.88;1678275;84;21005;-83
2022/03/05 05:02:21;;;;;;;75.15;39.92;;;;;;;-0.14;87.53;96805.45;1700436;84;20982;-83
2022/03/05 05:04:47;;;;;;;57.67;34.13;;;;;;;-0.14;87.57;96803.35;1700479;84;21397;-83
2022/03/05 05:07:13;;;;;;;73.37;43.85;;;;;;;-0.19;87.57;96810.03;1700291;84;21096;-83
2022/03/05 05:09:40;;;;;;;77.03;42.85;;;;;;;-0.22;87.42;96810.25;1678295;84;20997;-83
2022/03/05 05:12:07;;;;;;;70.00;40.17;;;;;;;-0.28;87.33;96809.86;1700364;84;21382;-83
2022/03/05 05:14:33;;;;;;;63.55;35.73;;;;;;;-0.31;87.79;96810.89;1700279;84;21025;-83
2022/03/05 05:16:59;;;;;;;80.90;46.42;;;;;;;-0.35;88.00;96815.83;1700181;84;21061;-83
2022/03/05 05:19:24;;;;;;;73.10;43.78;;;;;;;-0.39;87.82;96822.06;1677984;84;21451;-83
2022/03/05 05:21:51;;;;;;;87.47;46.77;;;;;;;-0.34;87.98;96815.72;1700419;84;21003;-83
2022/03/05 05:24:17;;;;;;;81.37;45.65;;;;;;;-0.24;88.12;96824.86;1700222;84;21281;-83
2022/03/05 05:26:43;;;;;;;90.22;48.48;;;;;;;-0.20;87.97;96821.17;1700383;84;21409;-83
2022/03/05 05:29:09;;;;;;;70.90;40.20;;;;;;;-0.18;87.99;96825.70;1700413;84;20959;-83
2022/03/05 05:31:35;;;;;;;55.95;33.50;;;;;;;-0.18;87.95;96824.89;1700195;84;21101;-83
2022/03/05 05:34:02;;;;;;;76.25;43.75;;;;;;;-0.23;87.85;96828.23;1678621;84;21045;-83
2022/03/05 05:36:28;;;;;;;74.90;45.80;;;;;;;-0.31;87.64;96823.66;1700366;84;20982;-83
2022/03/05 05:38:53;;;;;;;81.63;46.60;;;;;;;-0.30;87.94;96824.02;1700380;84;21006;-83
2022/03/05 05:41:19;;;;;;;69.82;38.78;;;;;;;-0.27;88.02;96829.36;1700340;84;21294;-83
2022/03/05 05:43:45;;;;;;;79.58;43.78;;;;;;;-0.29;88.00;96832.03;1700450;84;21349;-83
2022/03/05 05:46:11;;;;;;;76.97;43.85;;;;;;;-0.34;87.82;96832.77;1700355;84;20966;-83
2022/03/05 05:48:37;;;;;;;64.42;37.90;;;;;;;-0.29;88.09;96829.47;1700212;84;21109;-83
2022/03/05 05:51:03;;;;;;;74.07;43.13;;;;;;;-0.28;88.00;96831.10;1700289;84;20970;-83
2022/03/05 05:53:29;;;;;;;79.53;41.90;;;;;;;-0.34;88.05;96830.22;1696091;83;21066;-83
2022/03/05 05:55:55;;;;;;;73.15;41.55;;;;;;;-0.32;88.07;96830.96;1692965;85;21014;-83
2022/03/05 05:58:21;;;;;;;71.05;41.95;;;;;;;-0.32;88.11;96832.23;1693438;85;20978;-83
2022/03/05 06:00:48;;;;;;;74.35;43.58;;;;;;;-0.26;88.21;96839.47;1693505;85;21987;-83
2022/03/05 06:03:15;;;;;;;58.20;33.20;;;;;;;-0.22;88.16;96838.34;1693491;84;21062;-83
2022/03/05 06:05:40;;;;;;;71.40;41.02;;;;;;;-0.15;88.38;96842.12;1693521;84;21443;-83
2022/03/05 06:08:06;;;;;;;76.02;42.08;;;;;;;-0.24;87.92;96838.91;1693602;85;20998;-83
2022/03/05 06:10:32;;;;;;;78.97;41.90;;;;;;;-0.25;87.83;96842.84;1693472;85;20990;-83
2022/03/05 06:12:58;;;;;;;74.12;42.23;;;;;;;-0.20;88.09;96843.34;1693550;85;20994;-83
2022/03/05 06:15:24;;;;;;;62.95;37.67;;;;;;;-0.16;87.90;96849.89;1693230;85;21113;-83
2022/03/05 06:17:50;;;;;;;83.70;44.30;;;;;;;-0.16;88.10;96846.88;1693322;85;21156;-83
2022/03/05 06:20:16;;;;;;;76.25;41.90;;;;;;;-0.16;88.01;96846.88;1693515;85;21006;-83
2022/03/05 06:22:42;;;;;;;72.75;41.65;;;;;;;-0.09;88.12;96849.82;1693609;85;21010;-83
2022/03/05 06:25:08;;;;;;;69.67;39.55;;;;;;;-0.02;87.95;96856.13;1693671;85;20997;-83
2022/03/05 06:27:34;;;;;;;69.40;39.45;;;;;;;0.06;87.94;96851.33;1693472;85;21078;-83
2022/03/05 06:29:59;;;;;;;65.87;36.98;;;;;;;0.15;87.77;96854.97;1693729;85;21447;-83
2022/03/05 06:32:25;;;;;;;60.78;37.05;;;;;;;0.24;87.90;96851.80;1693520;85;20986;-83
2022/03/05 06:34:54;;;;;;;61.42;35.80;;;;;;;0.30;87.47;96853.91;1693515;85;21017;-83
2022/03/05 06:37:22;;;;;;;49.00;30.82;;;;;;;0.31;86.92;96860.66;1693470;85;21053;-83
2022/03/05 06:39:48;;;;;;;55.43;33.48;;;;;;;0.37;86.76;96861.53;1693086;84;21022;-83
2022/03/05 06:42:15;;;;;;;64.37;34.65;;;;;;;0.35;86.37;96866.39;1693553;85;21053;-83
2022/03/05 06:44:41;;;;;;;59.80;34.70;;;;;;;0.35;86.36;96865.94;1693609;85;21376;-83
2022/03/05 06:47:07;;;;;;;44.38;27.00;;;;;;;0.39;86.42;96872.45;1693504;85;21011;-83
2022/03/05 06:49:33;;;;;;;45.35;29.82;;;;;;;0.44;85.87;96870.39;1673186;85;21014;-83
2022/03/05 06:51:59;;;;;;;53.02;31.40;;;;;;;0.45;85.55;96873.30;1693259;85;21065;-84
2022/03/05 06:54:25;;;;;;;50.12;31.85;;;;;;;0.46;85.40;96880.05;1699122;83;21424;-84
2022/03/05 06:56:52;;;;;;;44.50;27.73;;;;;;;0.47;85.53;96875.28;1700182;84;21050;-84
2022/03/05 06:59:17;;;;;;;43.92;29.12;;;;;;;0.62;85.82;96875.13;1700151;84;21009;-84
2022/03/05 07:01:43;;;;;;;45.15;28.00;;;;;;;0.73;85.60;96873.45;1700605;82;20981;-83
2022/03/05 07:04:09;;;;;;;40.45;28.12;;;;;;;0.84;85.40;96873.98;1700349;84;21395;-83
2022/03/05 07:06:37;;;;;;;36.35;24.72;;;;;;;0.95;84.88;96874.02;1700294;84;21001;-83
2022/03/05 07:09:02;;;;;;;37.38;23.18;;;;;;;0.98;84.42;96874.28;1700444;84;20990;-83
2022/03/05 07:11:29;;;;;;;33.80;21.27;;;;;;;1.01;84.23;96872.31;1700261;84;20990;-84
2022/03/05 07:13:54;;;;;;;33.90;22.67;;;;;;;1.10;83.83;96874.66;1700317;84;21006;-83
2022/03/05 07:16:20;;;;;;;35.78;23.00;;;;;;;1.13;83.50;96876.52;1700287;84;21423;-83
2022/03/05 07:18:46;;;;;;;40.03;24.43;;;;;;;1.17;83.34;96874.58;1700117;84;21014;-84
2022/03/05 07:21:12;;;;;;;36.40;23.32;;;;;;;1.19;83.19;96877.84;1700036;84;21005;-84
2022/03/05 07:23:38;;;;;;;37.67;24.82;;;;;;;1.17;83.27;96866.44;1700282;84;21113;-84
2022/03/05 07:26:03;;;;;;;36.28;24.07;;;;;;;1.21;82.71;96884.94;1700378;84;21058;-83
2022/03/05 07:28:29;;;;;;;32.60;21.35;;;;;;;1.30;82.67;96885.99;1700417;84;21523;-84
2022/03/05 07:30:55;;;;;;;29.65;20.68;;;;;;;1.35;82.27;96878.81;1700324;84;21075;-84
2022/03/05 07:33:22;;;;;;;27.48;19.35;;;;;;;1.42;81.73;96885.10;1700299;84;21071;-84
2022/03/05 07:35:48;;;;;;;31.20;22.62;;;;;;;1.43;81.09;96879.05;1700352;84;21050;-84
2022/03/05 07:38:13;;;;;;;29.32;20.55;;;;;;;1.44;81.16;96885.80;1700531;84;21416;-83
2022/03/05 07:40:39;;;;;;;32.20;21.10;;;;;;;1.56;81.63;96890.03;1700353;84;21002;-84
2022/03/05 07:43:05;;;;;;;27.95;18.67;;;;;;;1.59;80.80;96890.27;1700369;84;20983;-84
2022/03/05 07:45:30;;;;;;;28.23;19.82;;;;;;;1.60;79.97;96895.73;1700499;84;21017;-84
2022/03/05 07:47:56;;;;;;;29.40;21.62;;;;;;;1.53;79.70;96894.57;1700306;84;21410;-83
2022/03/05 07:50:22;;;;;;;30.62;22.37;;;;;;;1.52;79.82;96896.31;1700460;84;21006;-84
2022/03/05 07:52:48;;;;;;;28.80;20.97;;;;;;;1.62;80.17;96901.09;1700329;83;20946;-84
2022/03/05 07:55:13;;;;;;;28.30;19.98;;;;;;;1.73;79.85;96893.43;1700439;84;21017;-83
2022/03/05 07:57:39;;;;;;;32.15;22.30;;;;;;;1.79;79.11;96896.84;1700465;84;20978;-84
2022/03/05 08:00:06;;;;;;;23.85;18.30;;;;;;;1.84;79.22;96895.20;1700396;84;21001;-84
2022/03/05 08:02:32;;;;;;;26.52;18.60;;;;;;;1.87;78.50;96897.53;1700495;82;20967;-84
2022/03/05 08:04:58;;;;;;;25.72;18.25;;;;;;;1.86;78.67;96907.90;1700480;84;21408;-84
2022/03/05 08:07:24;;;;;;;27.42;18.37;;;;;;;1.76;77.92;96907.75;1700643;84;21006;-84
2022/03/05 08:09:50;;;;;;;26.70;19.25;;;;;;;1.63;77.75;96908.34;1700472;84;21009;-84
2022/03/05 08:12:16;;;;;;;30.43;21.87;;;;;;;1.62;78.21;96916.92;1700184;84;21455;-84
2022/03/05 08:14:44;;;;;;;34.33;25.08;;;;;;;1.64;78.26;96913.34;1700349;84;21050;-84
2022/03/05 08:17:09;;;;;;;33.55;23.90;;;;;;;1.67;78.69;96918.23;1700064;83;21002;-83
2022/03/05 08:19:35;;;;;;;28.73;21.07;;;;;;;1.56;78.08;96918.20;1700347;84;21523;-84
2022/03/05 08:22:01;;;;;;;30.08;21.33;;;;;;;1.52;77.71;96918.55;1700315;84;21005;-83
2022/03/05 08:24:26;;;;;;;29.05;18.92;;;;;;;1.60;77.98;96924.73;1700308;84;21014;-84
2022/03/05 08:26:52;;;;;;;26.35;19.02;;;;;;;1.70;77.36;96916.72;1700343;84;21068;-84
2022/03/05 08:29:18;;;;;;;27.85;19.20;;;;;;;1.80;76.99;96916.87;1700329;84;21074;-84
2022/03/05 08:31:43;;;;;;;25.65;19.75;;;;;;;1.95;77.04;96921.28;1700285;84;21417;-84
2022/03/05 08:34:10;;;;;;;29.12;20.70;;;;;;;1.98;76.30;96921.89;1700142;84;21027;-84
2022/03/05 08:36:36;;;;;;;32.10;22.62;;;;;;;1.98;75.07;96919.80;1700410;84;21002;-83
2022/03/05 08:39:02;;;;;;;29.57;21.60;;;;;;;1.87;75.74;96927.00;1700313;84;21013;-83
2022/03/05 08:41:28;;;;;;;28.42;20.72;;;;;;;1.95;74.89;96927.69;1700389;84;21007;-84
2022/03/05 08:43:53;;;;;;;28.55;21.37;;;;;;;1.93;75.19;96927.81;1700285;84;21002;-84
2022/03/05 08:46:19;;;;;;;30.68;21.70;;;;;;;1.89;74.57;96931.54;1700164;84;20994;-84
2022/03/05 08:48:45;;;;;;;29.18;20.50;;;;;;;1.88;74.88;96931.66;1700295;84;21013;-84
2022/03/05 08:51:10;;;;;;;22.15;15.40;;;;;;;1.94;74.84;96935.84;1700298;84;21400;-84
2022/03/05 08:53:36;;;;;;;27.93;21.37;;;;;;;1.95;73.19;96936.66;1698228;83;21038;-84
2022/03/05 08:56:02;;;;;;;29.52;21.62;;;;;;;1.71;74.63;96904.73;1693601;85;20995;-84
2022/03/05 08:58:28;;;;;;;29.92;21.20;;;;;;;1.99;74.82;96938.09;1673427;85;21002;-84
2022/03/05 09:00:54;;;;;;;29.82;21.07;;;;;;;2.04;74.16;96936.80;1693031;83;20998;-84
2022/03/05 09:03:19;;;;;;;21.68;17.07;;;;;;;2.11;74.53;96937.14;1693367;85;20998;-84
2022/03/05 09:05:46;;;;;;;23.22;18.87;;;;;;;2.26;73.09;96939.83;1693805;85;21011;-84
2022/03/05 09:08:13;;;;;;;28.75;21.62;;;;;;;2.31;73.23;96945.91;1693672;85;21066;-84
2022/03/05 09:10:39;;;;;;;27.87;21.50;;;;;;;2.31;72.66;96940.31;1693404;85;21077;-84
2022/03/05 09:13:05;;;;;;;30.82;23.12;;;;;;;2.22;72.88;96942.28;1693656;85;21393;-84
2022/03/05 09:15:31;;;;;;;27.25;19.40;;;;;;;2.17;73.42;96941.83;1693463;85;21040;-84
2022/03/05 09:17:57;;;;;;;27.00;21.02;;;;;;;2.07;71.60;96939.13;1693532;85;21369;-84
2022/03/05 09:20:22;;;;;;;24.30;17.30;;;;;;;2.12;72.57;96937.52;1693614;85;21018;-84
2022/03/05 09:22:48;;;;;;;27.77;20.02;;;;;;;2.24;72.20;96932.72;1693567;85;21007;-84
2022/03/05 09:25:14;;;;;;;26.57;20.10;;;;;;;2.27;71.24;96938.90;1693739;85;21002;-84
2022/03/05 09:27:39;;;;;;;27.17;20.55;;;;;;;2.33;71.44;96936.35;1693525;85;21057;-84
2022/03/05 09:30:07;;;;;;;29.10;21.02;;;;;;;2.10;70.38;96944.02;1693666;85;21377;-84
2022/03/05 09:32:33;;;;;;;21.62;17.62;;;;;;;2.04;71.36;96940.64;1693479;84;21046;-83
2022/03/05 09:34:59;;;;;;;25.15;17.75;;;;;;;2.18;70.25;96938.80;1693596;85;21038;-84
2022/03/05 09:37:30;;;;;;;21.20;17.10;;;;;;;2.22;70.41;96937.16;1693643;85;21050;-84
2022/03/05 09:39:57;;;;;;;19.42;15.00;;;;;;;2.22;68.72;96932.03;1693506;85;20990;-84
2022/03/05 09:42:23;;;;;;;20.50;14.83;;;;;;;2.35;68.44;96934.02;1693343;85;21561;-84
2022/03/05 09:44:49;;;;;;;18.85;14.80;;;;;;;2.56;68.91;96934.11;1693537;84;20978;-84
2022/03/05 09:47:15;;;;;;;14.23;12.33;;;;;;;2.67;68.09;96937.13;1693546;85;21065;-84
2022/03/05 09:49:41;;;;;;;15.08;11.40;;;;;;;2.95;67.32;96938.37;1693438;85;21130;-84
2022/03/05 09:52:08;;;;;;;13.62;10.08;;;;;;;3.29;67.27;96942.45;1693304;85;21091;-84
2022/03/05 09:54:34;;;;;;;14.43;11.28;;;;;;;3.46;66.31;96935.95;1696292;83;21452;-84
2022/03/05 09:57:00;;;;;;;15.58;11.95;;;;;;;3.44;66.77;96939.59;1698560;84;21030;-84
2022/03/05 09:59:26;;;;;;;11.08;9.33;;;;;;;3.11;63.19;96942.64;1698468;84;20990;-84
2022/03/05 10:01:52;;;;;;;14.98;10.72;;;;;;;2.88;58.74;96940.58;1698122;84;21034;-84
2022/03/05 10:04:20;;;;;;;16.55;13.45;;;;;;;2.60;62.92;96940.66;1698587;84;21344;-84
2022/03/05 10:06:45;;;;;;;13.43;10.93;;;;;;;2.46;63.46;96943.46;1698529;84;20971;-84
2022/03/05 10:09:22;;;;;;;13.62;11.12;;;;;;;2.48;64.06;96948.47;1631870;84;21003;-84
2022/03/05 10:11:47;;;;;;;12.58;9.78;;;;;;;2.58;64.50;96946.81;1698540;84;20998;-84
2022/03/05 10:14:15;;;;;;;16.23;13.93;;;;;;;2.61;62.66;96951.73;1698500;84;21073;-84
2022/03/05 10:16:41;;;;;;;13.22;10.60;;;;;;;2.64;64.97;96948.45;1698512;84;21356;-84
2022/03/05 10:19:21;;;;;;;11.97;10.15;;;;;;;2.69;63.40;96954.50;1698419;84;21033;-84
2022/03/05 10:22:05;;;;;;;12.15;10.10;;;;;;;2.63;62.88;96954.99;1698584;84;21086;-84
2022/03/05 10:24:37;;;;;;;12.88;10.78;;;;;;;2.63;63.19;96953.24;1698598;84;20998;-84
2022/03/05 10:27:04;;;;;;;12.37;10.55;;;;;;;2.70;63.22;96955.67;1698252;84;21022;-85
2022/03/05 10:29:37;;;;;;;22.70;17.87;;;;;;;2.91;63.25;96962.16;1698445;84;21014;-84
2022/03/05 10:32:06;;;;;;;23.75;17.57;;;;;;;2.80;63.10;96958.81;1698544;84;21031;-84
2022/03/05 10:34:53;;;;;;;21.80;16.95;;;;;;;2.66;63.76;96957.31;1698425;84;21476;-84
2022/03/05 10:37:20;;;;;;;20.35;15.53;;;;;;;2.55;64.49;96954.75;1698319;84;21046;-84
2022/03/05 10:39:46;;;;;;;13.40;12.00;;;;;;;2.33;63.42;96951.73;1699643;84;21353;-84
2022/03/05 10:42:20;;;;;;;14.60;11.35;;;;;;;2.27;64.16;96958.13;1698633;84;20998;-84
2022/03/05 10:45:08;;;;;;;11.83;10.25;;;;;;;2.22;63.63;96960.23;1698656;84;21380;-84
2022/03/05 10:47:43;;;;;;;12.43;9.83;;;;;;;2.20;63.14;96960.00;1675873;84;21093;-84
2022/03/05 10:50:22;;;;;;;13.83;11.63;;;;;;;2.13;63.28;96962.69;1698431;84;21566;-83
2022/03/05 10:52:54;;;;;;;12.43;11.03;;;;;;;2.08;64.00;96960.45;1698627;84;20998;-84
2022/03/05 10:55:23;;;;;;;13.40;10.48;;;;;;;2.04;64.26;96966.74;1694504;84;21053;-84
2022/03/05 10:58:05;;;;;;;12.60;10.23;;;;;;;2.01;63.84;96964.42;1693514;85;21013;-84
2022/03/05 11:00:31;;;;;;;11.03;8.00;;;;;;;2.02;63.94;96968.14;1693289;84;21010;-84
2022/03/05 11:02:58;;;;;;;7.50;6.35;;;;;;;2.08;62.90;96966.39;1689439;84;21009;-84
2022/03/05 11:05:23;;;;;;;8.15;6.90;;;;;;;2.13;61.53;96965.25;1693689;84;20971;-84
2022/03/05 11:07:49;;;;;;;8.90;7.22;;;;;;;2.20;62.20;96964.66;1693809;85;21069;-84
2022/03/05 11:10:18;;;;;;;9.98;7.22;;;;;;;2.32;62.17;96959.08;1693663;85;20978;-84
2022/03/05 11:12:51;;;;;;;7.60;6.53;;;;;;;2.43;60.80;96958.25;1693561;83;21118;-84
2022/03/05 11:15:15;;;;;;;10.53;6.85;;;;;;;2.48;60.28;96968.52;1693650;84;21038;-84
2022/03/05 11:17:41;;;;;;;8.28;6.90;;;;;;;2.47;60.83;96959.20;1693821;84;20986;-84
2022/03/05 11:20:08;;;;;;;9.90;7.10;;;;;;;2.59;60.65;96956.95;1745974;82;21428;-84